Yellow Pine, Alabama
Current Conditions -  °F | °C
As of 4:56 PM on Thursday 18 Dec 2014 (Local Time) from KMOB Reporting Station
Broken Clouds Broken Clouds  
Wind Chill: 57°   Ceiling: 25000
Heat Index: 57°   Visibility: 10mi
Dew Point: 45°   Wind: 6mph
Humidity: 64%   Direction: 130°SE
Pressure: 30.14"   Gusts: NA
Location:  31.3356°N, 88.3227°W
Report Text: KMOB 182256Z 13005KT 10SM FEW095 SCT120 BKN250 14/07 A3014 RMK AO2 SLP205 T01390072
Loading
Personal Weather Stations






























Interactive Weather Map New forecast layout! Learn more

10-Day Weather Forecast

Advertisements
Track Severe Weather on mobile